sensor_id;sensor_type;location;lat;lon;timestamp;P1;durP1;ratioP1;P2;durP2;ratioP2
69822;SDS011;57119;52.516;13.508;2023-04-25T00:01:37;7.67;;;2.70;;
69822;SDS011;57119;52.516;13.508;2023-04-25T00:04:03;6.77;;;2.10;;
69822;SDS011;57119;52.516;13.508;2023-04-25T00:06:31;6.20;;;2.20;;
69822;SDS011;57119;52.516;13.508;2023-04-25T00:08:57;5.75;;;2.40;;
69822;SDS011;57119;52.516;13.508;2023-04-25T00:11:23;7.90;;;2.40;;
69822;SDS011;57119;52.516;13.508;2023-04-25T00:13:49;8.10;;;2.42;;
69822;SDS011;57119;52.516;13.508;2023-04-25T00:16:15;7.97;;;2.53;;
69822;SDS011;57119;52.516;13.508;2023-04-25T00:18:41;5.80;;;1.90;;
69822;SDS011;57119;52.516;13.508;2023-04-25T00:21:07;7.93;;;2.47;;
69822;SDS011;57119;52.516;13.508;2023-04-25T00:23:33;6.20;;;1.70;;
69822;SDS011;57119;52.516;13.508;2023-04-25T00:26:01;5.40;;;1.83;;
69822;SDS011;57119;52.516;13.508;2023-04-25T00:28:27;5.57;;;1.80;;
69822;SDS011;57119;52.516;13.508;2023-04-25T00:30:52;5.73;;;1.97;;
69822;SDS011;57119;52.516;13.508;2023-04-25T00:33:17;5.60;;;2.07;;
69822;SDS011;57119;52.516;13.508;2023-04-25T00:35:43;6.85;;;2.10;;
69822;SDS011;57119;52.516;13.508;2023-04-25T00:38:08;5.73;;;1.80;;
69822;SDS011;57119;52.516;13.508;2023-04-25T00:40:33;5.87;;;2.10;;
69822;SDS011;57119;52.516;13.508;2023-04-25T00:42:59;4.83;;;1.80;;
69822;SDS011;57119;52.516;13.508;2023-04-25T00:45:27;6.95;;;2.25;;
69822;SDS011;57119;52.516;13.508;2023-04-25T00:47:54;9.13;;;2.20;;
69822;SDS011;57119;52.516;13.508;2023-04-25T00:50:19;9.07;;;2.50;;
69822;SDS011;57119;52.516;13.508;2023-04-25T00:52:44;7.13;;;2.00;;
69822;SDS011;57119;52.516;13.508;2023-04-25T00:55:10;8.83;;;2.17;;
69822;SDS011;57119;52.516;13.508;2023-04-25T00:57:37;5.60;;;2.20;;
69822;SDS011;57119;52.516;13.508;2023-04-25T01:00:03;7.10;;;1.90;;
69822;SDS011;57119;52.516;13.508;2023-04-25T01:02:31;6.40;;;2.13;;
69822;SDS011;57119;52.516;13.508;2023-04-25T01:04:58;9.93;;;2.28;;
69822;SDS011;57119;52.516;13.508;2023-04-25T01:07:23;5.90;;;1.90;;
69822;SDS011;57119;52.516;13.508;2023-04-25T01:09:49;9.00;;;2.78;;
69822;SDS011;57119;52.516;13.508;2023-04-25T01:12:16;6.28;;;2.22;;
69822;SDS011;57119;52.516;13.508;2023-04-25T01:14:42;10.17;;;2.40;;
69822;SDS011;57119;52.516;13.508;2023-04-25T01:17:08;8.97;;;2.20;;
69822;SDS011;57119;52.516;13.508;2023-04-25T01:19:33;7.35;;;2.38;;
69822;SDS011;57119;52.516;13.508;2023-04-25T01:21:59;9.20;;;2.53;;
69822;SDS011;57119;52.516;13.508;2023-04-25T01:24:25;6.60;;;2.40;;
69822;SDS011;57119;52.516;13.508;2023-04-25T01:26:50;8.07;;;2.70;;
69822;SDS011;57119;52.516;13.508;2023-04-25T01:29:17;11.57;;;2.78;;
69822;SDS011;57119;52.516;13.508;2023-04-25T01:31:43;11.47;;;3.00;;
69822;SDS011;57119;52.516;13.508;2023-04-25T01:34:09;10.25;;;2.67;;
69822;SDS011;57119;52.516;13.508;2023-04-25T01:36:35;7.47;;;2.10;;
69822;SDS011;57119;52.516;13.508;2023-04-25T01:39:01;9.77;;;2.40;;
69822;SDS011;57119;52.516;13.508;2023-04-25T01:41:26;9.25;;;3.25;;
69822;SDS011;57119;52.516;13.508;2023-04-25T01:43:52;7.37;;;2.00;;
69822;SDS011;57119;52.516;13.508;2023-04-25T01:46:18;9.30;;;2.55;;
69822;SDS011;57119;52.516;13.508;2023-04-25T01:48:43;8.87;;;2.90;;
69822;SDS011;57119;52.516;13.508;2023-04-25T01:51:09;8.60;;;2.67;;
69822;SDS011;57119;52.516;13.508;2023-04-25T01:53:36;9.02;;;2.40;;
69822;SDS011;57119;52.516;13.508;2023-04-25T01:56:02;11.10;;;2.33;;
69822;SDS011;57119;52.516;13.508;2023-04-25T01:58:27;5.90;;;1.90;;
69822;SDS011;57119;52.516;13.508;2023-04-25T02:00:53;9.93;;;2.37;;
69822;SDS011;57119;52.516;13.508;2023-04-25T02:03:18;8.63;;;2.83;;
69822;SDS011;57119;52.516;13.508;2023-04-25T02:05:43;9.53;;;2.67;;
69822;SDS011;57119;52.516;13.508;2023-04-25T02:08:09;9.33;;;3.43;;
69822;SDS011;57119;52.516;13.508;2023-04-25T02:10:34;8.83;;;2.60;;
69822;SDS011;57119;52.516;13.508;2023-04-25T02:13:00;8.97;;;2.73;;
69822;SDS011;57119;52.516;13.508;2023-04-25T02:15:26;6.78;;;2.90;;
69822;SDS011;57119;52.516;13.508;2023-04-25T02:17:51;8.20;;;3.30;;
69822;SDS011;57119;52.516;13.508;2023-04-25T02:20:18;6.95;;;2.58;;
69822;SDS011;57119;52.516;13.508;2023-04-25T02:22:45;7.28;;;2.10;;
69822;SDS011;57119;52.516;13.508;2023-04-25T02:25:10;8.20;;;2.90;;
69822;SDS011;57119;52.516;13.508;2023-04-25T02:27:36;8.63;;;2.72;;
69822;SDS011;57119;52.516;13.508;2023-04-25T02:30:02;7.70;;;2.50;;
69822;SDS011;57119;52.516;13.508;2023-04-25T02:32:28;9.88;;;3.42;;
69822;SDS011;57119;52.516;13.508;2023-04-25T02:34:53;9.77;;;2.90;;
69822;SDS011;57119;52.516;13.508;2023-04-25T02:37:19;9.02;;;3.05;;
69822;SDS011;57119;52.516;13.508;2023-04-25T02:39:44;8.87;;;2.70;;
69822;SDS011;57119;52.516;13.508;2023-04-25T02:42:10;7.90;;;3.47;;
69822;SDS011;57119;52.516;13.508;2023-04-25T02:44:35;7.90;;;3.20;;
69822;SDS011;57119;52.516;13.508;2023-04-25T02:47:00;6.83;;;2.53;;
69822;SDS011;57119;52.516;13.508;2023-04-25T02:49:26;10.50;;;3.00;;
69822;SDS011;57119;52.516;13.508;2023-04-25T02:51:51;7.07;;;3.10;;
69822;SDS011;57119;52.516;13.508;2023-04-25T02:54:17;9.37;;;2.87;;
69822;SDS011;57119;52.516;13.508;2023-04-25T02:56:42;10.47;;;3.17;;
69822;SDS011;57119;52.516;13.508;2023-04-25T02:59:07;9.63;;;3.93;;
69822;SDS011;57119;52.516;13.508;2023-04-25T03:01:33;10.10;;;3.03;;
69822;SDS011;57119;52.516;13.508;2023-04-25T03:03:58;9.10;;;3.00;;
69822;SDS011;57119;52.516;13.508;2023-04-25T03:06:24;9.13;;;2.72;;
69822;SDS011;57119;52.516;13.508;2023-04-25T03:08:49;9.00;;;3.00;;
69822;SDS011;57119;52.516;13.508;2023-04-25T03:11:14;9.10;;;3.27;;
69822;SDS011;57119;52.516;13.508;2023-04-25T03:13:40;9.20;;;3.30;;
69822;SDS011;57119;52.516;13.508;2023-04-25T03:16:05;6.77;;;3.07;;
69822;SDS011;57119;52.516;13.508;2023-04-25T03:18:31;8.30;;;2.90;;
69822;SDS011;57119;52.516;13.508;2023-04-25T03:20:56;8.73;;;3.10;;
69822;SDS011;57119;52.516;13.508;2023-04-25T03:23:22;12.00;;;4.20;;
69822;SDS011;57119;52.516;13.508;2023-04-25T03:25:47;7.67;;;3.07;;
69822;SDS011;57119;52.516;13.508;2023-04-25T03:28:13;7.93;;;3.10;;
69822;SDS011;57119;52.516;13.508;2023-04-25T03:30:39;7.65;;;3.33;;
69822;SDS011;57119;52.516;13.508;2023-04-25T03:33:05;8.40;;;3.13;;
69822;SDS011;57119;52.516;13.508;2023-04-25T03:35:30;7.82;;;3.25;;
69822;SDS011;57119;52.516;13.508;2023-04-25T03:37:56;10.47;;;3.23;;
69822;SDS011;57119;52.516;13.508;2023-04-25T03:40:21;11.67;;;3.70;;
69822;SDS011;57119;52.516;13.508;2023-04-25T03:42:46;8.07;;;2.90;;
69822;SDS011;57119;52.516;13.508;2023-04-25T03:45:12;8.02;;;3.08;;
69822;SDS011;57119;52.516;13.508;2023-04-25T03:47:37;10.47;;;3.50;;
69822;SDS011;57119;52.516;13.508;2023-04-25T03:50:02;8.07;;;3.13;;
69822;SDS011;57119;52.516;13.508;2023-04-25T03:52:28;9.30;;;3.30;;
69822;SDS011;57119;52.516;13.508;2023-04-25T03:54:53;9.37;;;3.33;;
69822;SDS011;57119;52.516;13.508;2023-04-25T03:57:19;10.83;;;3.60;;
69822;SDS011;57119;52.516;13.508;2023-04-25T03:59:44;7.43;;;3.37;;
69822;SDS011;57119;52.516;13.508;2023-04-25T04:02:10;8.33;;;3.37;;
69822;SDS011;57119;52.516;13.508;2023-04-25T04:04:35;8.73;;;3.03;;
69822;SDS011;57119;52.516;13.508;2023-04-25T04:07:01;8.40;;;3.23;;
69822;SDS011;57119;52.516;13.508;2023-04-25T04:09:26;9.60;;;3.60;;
69822;SDS011;57119;52.516;13.508;2023-04-25T04:11:52;7.72;;;3.20;;
69822;SDS011;57119;52.516;13.508;2023-04-25T04:14:18;9.07;;;3.07;;
69822;SDS011;57119;52.516;13.508;2023-04-25T04:16:43;9.57;;;3.05;;
69822;SDS011;57119;52.516;13.508;2023-04-25T04:19:09;9.20;;;3.07;;
69822;SDS011;57119;52.516;13.508;2023-04-25T04:21:35;8.65;;;2.72;;
69822;SDS011;57119;52.516;13.508;2023-04-25T04:24:00;9.83;;;3.70;;
69822;SDS011;57119;52.516;13.508;2023-04-25T04:26:25;8.53;;;2.97;;
69822;SDS011;57119;52.516;13.508;2023-04-25T04:28:51;10.57;;;3.70;;
69822;SDS011;57119;52.516;13.508;2023-04-25T04:31:19;9.17;;;3.07;;
69822;SDS011;57119;52.516;13.508;2023-04-25T04:33:45;8.60;;;3.03;;
69822;SDS011;57119;52.516;13.508;2023-04-25T04:36:11;11.68;;;3.85;;
69822;SDS011;57119;52.516;13.508;2023-04-25T04:38:36;9.13;;;3.40;;
69822;SDS011;57119;52.516;13.508;2023-04-25T04:41:02;9.17;;;3.40;;
69822;SDS011;57119;52.516;13.508;2023-04-25T04:43:28;8.20;;;2.92;;
69822;SDS011;57119;52.516;13.508;2023-04-25T04:45:54;10.53;;;3.07;;
69822;SDS011;57119;52.516;13.508;2023-04-25T04:48:21;10.57;;;3.78;;
69822;SDS011;57119;52.516;13.508;2023-04-25T04:50:46;9.85;;;3.60;;
69822;SDS011;57119;52.516;13.508;2023-04-25T04:53:13;9.50;;;2.53;;
69822;SDS011;57119;52.516;13.508;2023-04-25T04:55:38;10.65;;;3.03;;
69822;SDS011;57119;52.516;13.508;2023-04-25T04:58:06;10.55;;;2.95;;
69822;SDS011;57119;52.516;13.508;2023-04-25T05:00:31;8.00;;;2.83;;
69822;SDS011;57119;52.516;13.508;2023-04-25T05:02:56;9.13;;;3.00;;
69822;SDS011;57119;52.516;13.508;2023-04-25T05:05:22;8.20;;;2.80;;
69822;SDS011;57119;52.516;13.508;2023-04-25T05:07:47;8.98;;;3.17;;
69822;SDS011;57119;52.516;13.508;2023-04-25T05:10:13;8.77;;;2.97;;
69822;SDS011;57119;52.516;13.508;2023-04-25T05:12:38;9.50;;;2.93;;
69822;SDS011;57119;52.516;13.508;2023-04-25T05:15:04;9.33;;;3.10;;
69822;SDS011;57119;52.516;13.508;2023-04-25T05:17:29;11.40;;;3.22;;
69822;SDS011;57119;52.516;13.508;2023-04-25T05:19:55;12.73;;;3.40;;
69822;SDS011;57119;52.516;13.508;2023-04-25T05:22:20;9.37;;;2.70;;
69822;SDS011;57119;52.516;13.508;2023-04-25T05:24:45;9.13;;;3.17;;
69822;SDS011;57119;52.516;13.508;2023-04-25T05:27:11;11.13;;;3.30;;
69822;SDS011;57119;52.516;13.508;2023-04-25T05:29:36;11.73;;;4.37;;
69822;SDS011;57119;52.516;13.508;2023-04-25T05:32:02;10.90;;;3.27;;
69822;SDS011;57119;52.516;13.508;2023-04-25T05:34:27;10.73;;;3.00;;
69822;SDS011;57119;52.516;13.508;2023-04-25T05:36:53;8.70;;;2.85;;
69822;SDS011;57119;52.516;13.508;2023-04-25T05:39:18;10.13;;;2.87;;
69822;SDS011;57119;52.516;13.508;2023-04-25T05:41:43;8.57;;;3.37;;
69822;SDS011;57119;52.516;13.508;2023-04-25T05:44:09;6.40;;;3.30;;
69822;SDS011;57119;52.516;13.508;2023-04-25T05:46:34;8.20;;;3.40;;
69822;SDS011;57119;52.516;13.508;2023-04-25T05:49:00;9.37;;;3.23;;
69822;SDS011;57119;52.516;13.508;2023-04-25T05:51:25;8.63;;;3.53;;
69822;SDS011;57119;52.516;13.508;2023-04-25T05:53:51;8.90;;;3.27;;
69822;SDS011;57119;52.516;13.508;2023-04-25T05:56:16;8.07;;;3.00;;
69822;SDS011;57119;52.516;13.508;2023-04-25T05:58:41;9.10;;;3.20;;
69822;SDS011;57119;52.516;13.508;2023-04-25T06:01:07;9.90;;;2.77;;
69822;SDS011;57119;52.516;13.508;2023-04-25T06:03:32;10.17;;;3.30;;
69822;SDS011;57119;52.516;13.508;2023-04-25T06:05:57;10.13;;;3.90;;
69822;SDS011;57119;52.516;13.508;2023-04-25T06:08:23;10.63;;;3.50;;
69822;SDS011;57119;52.516;13.508;2023-04-25T06:10:48;8.77;;;3.30;;
69822;SDS011;57119;52.516;13.508;2023-04-25T06:13:14;9.77;;;3.60;;
69822;SDS011;57119;52.516;13.508;2023-04-25T06:15:40;13.52;;;3.67;;
69822;SDS011;57119;52.516;13.508;2023-04-25T06:18:05;10.07;;;3.83;;
69822;SDS011;57119;52.516;13.508;2023-04-25T06:20:31;11.52;;;4.28;;
69822;SDS011;57119;52.516;13.508;2023-04-25T06:22:56;8.47;;;3.83;;
69822;SDS011;57119;52.516;13.508;2023-04-25T06:25:22;9.43;;;4.10;;
69822;SDS011;57119;52.516;13.508;2023-04-25T06:27:47;8.00;;;3.47;;
69822;SDS011;57119;52.516;13.508;2023-04-25T06:30:13;8.43;;;3.17;;
69822;SDS011;57119;52.516;13.508;2023-04-25T06:32:38;10.32;;;4.40;;
69822;SDS011;57119;52.516;13.508;2023-04-25T06:35:04;8.13;;;3.43;;
69822;SDS011;57119;52.516;13.508;2023-04-25T06:37:30;9.55;;;3.78;;
69822;SDS011;57119;52.516;13.508;2023-04-25T06:39:55;7.53;;;3.33;;
69822;SDS011;57119;52.516;13.508;2023-04-25T06:42:21;8.83;;;4.50;;
69822;SDS011;57119;52.516;13.508;2023-04-25T06:44:46;10.13;;;3.87;;
69822;SDS011;57119;52.516;13.508;2023-04-25T06:47:11;9.18;;;4.15;;
69822;SDS011;57119;52.516;13.508;2023-04-25T06:49:37;8.17;;;3.60;;
69822;SDS011;57119;52.516;13.508;2023-04-25T06:52:02;10.20;;;4.27;;
69822;SDS011;57119;52.516;13.508;2023-04-25T06:54:28;11.07;;;3.90;;
69822;SDS011;57119;52.516;13.508;2023-04-25T06:56:55;11.40;;;4.20;;
69822;SDS011;57119;52.516;13.508;2023-04-25T06:59:21;10.00;;;4.00;;
69822;SDS011;57119;52.516;13.508;2023-04-25T07:01:46;9.52;;;3.53;;
69822;SDS011;57119;52.516;13.508;2023-04-25T07:04:12;11.90;;;5.00;;
69822;SDS011;57119;52.516;13.508;2023-04-25T07:06:37;9.93;;;3.90;;
69822;SDS011;57119;52.516;13.508;2023-04-25T07:09:07;10.20;;;3.88;;
69822;SDS011;57119;52.516;13.508;2023-04-25T07:11:33;12.27;;;3.55;;
69822;SDS011;57119;52.516;13.508;2023-04-25T07:13:59;8.17;;;3.13;;
69822;SDS011;57119;52.516;13.508;2023-04-25T07:16:24;8.82;;;3.50;;
69822;SDS011;57119;52.516;13.508;2023-04-25T07:18:50;11.10;;;3.70;;
69822;SDS011;57119;52.516;13.508;2023-04-25T07:21:15;8.93;;;3.60;;
69822;SDS011;57119;52.516;13.508;2023-04-25T07:23:41;10.00;;;3.27;;
69822;SDS011;57119;52.516;13.508;2023-04-25T07:26:06;8.77;;;3.37;;
69822;SDS011;57119;52.516;13.508;2023-04-25T07:28:32;12.00;;;3.55;;
69822;SDS011;57119;52.516;13.508;2023-04-25T07:30:58;7.00;;;2.97;;
69822;SDS011;57119;52.516;13.508;2023-04-25T07:33:23;7.80;;;3.20;;
69822;SDS011;57119;52.516;13.508;2023-04-25T07:35:48;7.72;;;3.38;;
69822;SDS011;57119;52.516;13.508;2023-04-25T07:38:15;9.17;;;3.53;;
69822;SDS011;57119;52.516;13.508;2023-04-25T07:40:40;13.38;;;3.50;;
69822;SDS011;57119;52.516;13.508;2023-04-25T07:43:05;11.47;;;3.40;;
69822;SDS011;57119;52.516;13.508;2023-04-25T07:45:31;11.27;;;3.20;;
69822;SDS011;57119;52.516;13.508;2023-04-25T07:47:56;9.50;;;3.07;;
69822;SDS011;57119;52.516;13.508;2023-04-25T07:50:22;10.25;;;3.85;;
69822;SDS011;57119;52.516;13.508;2023-04-25T07:52:47;9.80;;;3.17;;
69822;SDS011;57119;52.516;13.508;2023-04-25T07:55:13;11.13;;;3.20;;
69822;SDS011;57119;52.516;13.508;2023-04-25T07:57:38;12.40;;;3.37;;
69822;SDS011;57119;52.516;13.508;2023-04-25T08:00:04;17.80;;;3.28;;
69822;SDS011;57119;52.516;13.508;2023-04-25T08:02:33;10.63;;;3.17;;
69822;SDS011;57119;52.516;13.508;2023-04-25T08:04:59;9.98;;;2.88;;
69822;SDS011;57119;52.516;13.508;2023-04-25T08:07:24;13.03;;;3.50;;
69822;SDS011;57119;52.516;13.508;2023-04-25T08:09:50;8.40;;;3.10;;
69822;SDS011;57119;52.516;13.508;2023-04-25T08:12:15;9.40;;;3.00;;
69822;SDS011;57119;52.516;13.508;2023-04-25T08:14:40;9.03;;;3.07;;
69822;SDS011;57119;52.516;13.508;2023-04-25T08:17:06;14.68;;;3.42;;
69822;SDS011;57119;52.516;13.508;2023-04-25T08:19:31;10.17;;;2.87;;
69822;SDS011;57119;52.516;13.508;2023-04-25T08:21:57;12.30;;;3.10;;
69822;SDS011;57119;52.516;13.508;2023-04-25T08:24:22;11.30;;;2.63;;
69822;SDS011;57119;52.516;13.508;2023-04-25T08:26:48;15.30;;;3.13;;
69822;SDS011;57119;52.516;13.508;2023-04-25T08:29:14;12.88;;;2.85;;
69822;SDS011;57119;52.516;13.508;2023-04-25T08:31:39;13.00;;;2.80;;
69822;SDS011;57119;52.516;13.508;2023-04-25T08:34:05;10.60;;;2.93;;
69822;SDS011;57119;52.516;13.508;2023-04-25T08:36:30;12.48;;;3.10;;
69822;SDS011;57119;52.516;13.508;2023-04-25T08:38:56;12.57;;;2.40;;
69822;SDS011;57119;52.516;13.508;2023-04-25T08:41:22;14.40;;;3.17;;
69822;SDS011;57119;52.516;13.508;2023-04-25T08:43:48;12.55;;;2.63;;
69822;SDS011;57119;52.516;13.508;2023-04-25T08:46:16;17.42;;;3.72;;
69822;SDS011;57119;52.516;13.508;2023-04-25T08:48:43;13.98;;;2.95;;
69822;SDS011;57119;52.516;13.508;2023-04-25T08:51:10;10.25;;;2.80;;
69822;SDS011;57119;52.516;13.508;2023-04-25T08:53:44;12.57;;;2.77;;
69822;SDS011;57119;52.516;13.508;2023-04-25T08:56:14;14.90;;;3.40;;
69822;SDS011;57119;52.516;13.508;2023-04-25T08:58:43;13.85;;;4.18;;
69822;SDS011;57119;52.516;13.508;2023-04-25T09:01:10;15.52;;;3.05;;
69822;SDS011;57119;52.516;13.508;2023-04-25T09:03:36;13.70;;;3.50;;
69822;SDS011;57119;52.516;13.508;2023-04-25T09:06:01;14.23;;;3.20;;
69822;SDS011;57119;52.516;13.508;2023-04-25T09:08:28;11.97;;;3.23;;
69822;SDS011;57119;52.516;13.508;2023-04-25T09:10:53;15.73;;;3.60;;
69822;SDS011;57119;52.516;13.508;2023-04-25T09:13:26;13.75;;;2.95;;
69822;SDS011;57119;52.516;13.508;2023-04-25T09:15:54;12.13;;;3.17;;
69822;SDS011;57119;52.516;13.508;2023-04-25T09:18:27;14.37;;;2.93;;
69822;SDS011;57119;52.516;13.508;2023-04-25T09:20:54;10.73;;;3.22;;
69822;SDS011;57119;52.516;13.508;2023-04-25T09:23:21;13.15;;;3.17;;
69822;SDS011;57119;52.516;13.508;2023-04-25T09:25:48;14.65;;;3.33;;
69822;SDS011;57119;52.516;13.508;2023-04-25T09:28:22;13.10;;;3.38;;
69822;SDS011;57119;52.516;13.508;2023-04-25T09:30:55;9.33;;;2.80;;
69822;SDS011;57119;52.516;13.508;2023-04-25T09:33:26;10.40;;;2.38;;
69822;SDS011;57119;52.516;13.508;2023-04-25T09:35:54;11.02;;;2.20;;
69822;SDS011;57119;52.516;13.508;2023-04-25T09:38:27;12.52;;;2.90;;
69822;SDS011;57119;52.516;13.508;2023-04-25T09:40:55;10.95;;;2.75;;
69822;SDS011;57119;52.516;13.508;2023-04-25T09:43:21;12.70;;;2.67;;
69822;SDS011;57119;52.516;13.508;2023-04-25T09:45:48;10.27;;;3.33;;
69822;SDS011;57119;52.516;13.508;2023-04-25T09:48:18;9.35;;;2.92;;
69822;SDS011;57119;52.516;13.508;2023-04-25T09:51:03;11.30;;;2.53;;
69822;SDS011;57119;52.516;13.508;2023-04-25T09:53:35;10.65;;;2.53;;
69822;SDS011;57119;52.516;13.508;2023-04-25T09:56:05;12.07;;;2.85;;
69822;SDS011;57119;52.516;13.508;2023-04-25T09:58:32;11.18;;;2.95;;
69822;SDS011;57119;52.516;13.508;2023-04-25T10:01:01;11.68;;;2.72;;
69822;SDS011;57119;52.516;13.508;2023-04-25T10:03:31;12.57;;;2.50;;
69822;SDS011;57119;52.516;13.508;2023-04-25T10:06:01;9.55;;;2.15;;
69822;SDS011;57119;52.516;13.508;2023-04-25T10:08:33;10.10;;;2.63;;
69822;SDS011;57119;52.516;13.508;2023-04-25T10:11:00;13.77;;;2.75;;
69822;SDS011;57119;52.516;13.508;2023-04-25T10:13:28;15.32;;;2.92;;
69822;SDS011;57119;52.516;13.508;2023-04-25T10:15:57;9.53;;;2.60;;
69822;SDS011;57119;52.516;13.508;2023-04-25T10:18:24;9.65;;;2.33;;
69822;SDS011;57119;52.516;13.508;2023-04-25T10:20:52;15.38;;;2.55;;
69822;SDS011;57119;52.516;13.508;2023-04-25T10:23:19;9.02;;;2.47;;
69822;SDS011;57119;52.516;13.508;2023-04-25T10:25:45;10.60;;;2.97;;
69822;SDS011;57119;52.516;13.508;2023-04-25T10:28:11;8.90;;;2.60;;
69822;SDS011;57119;52.516;13.508;2023-04-25T10:30:36;7.87;;;2.03;;
69822;SDS011;57119;52.516;13.508;2023-04-25T10:33:01;11.17;;;2.60;;
69822;SDS011;57119;52.516;13.508;2023-04-25T10:35:41;10.20;;;2.53;;
69822;SDS011;57119;52.516;13.508;2023-04-25T10:38:10;11.57;;;2.80;;
69822;SDS011;57119;52.516;13.508;2023-04-25T10:40:37;10.38;;;2.10;;
69822;SDS011;57119;52.516;13.508;2023-04-25T10:45:56;10.40;;;2.20;;
69822;SDS011;57119;52.516;13.508;2023-04-25T10:48:24;11.80;;;2.95;;
69822;SDS011;57119;52.516;13.508;2023-04-25T10:50:53;10.85;;;1.83;;
69822;SDS011;57119;52.516;13.508;2023-04-25T10:53:33;8.75;;;1.88;;
69822;SDS011;57119;52.516;13.508;2023-04-25T10:55:59;8.57;;;1.90;;
69822;SDS011;57119;52.516;13.508;2023-04-25T10:58:24;8.50;;;1.80;;
69822;SDS011;57119;52.516;13.508;2023-04-25T11:00:51;9.07;;;2.30;;
69822;SDS011;57119;52.516;13.508;2023-04-25T11:03:17;7.13;;;2.20;;
69822;SDS011;57119;52.516;13.508;2023-04-25T11:05:46;9.15;;;2.15;;
69822;SDS011;57119;52.516;13.508;2023-04-25T11:08:14;8.35;;;2.10;;
69822;SDS011;57119;52.516;13.508;2023-04-25T11:10:49;7.30;;;2.30;;
69822;SDS011;57119;52.516;13.508;2023-04-25T11:13:15;9.63;;;1.73;;
69822;SDS011;57119;52.516;13.508;2023-04-25T11:15:41;9.80;;;3.03;;
69822;SDS011;57119;52.516;13.508;2023-04-25T11:18:07;7.60;;;1.93;;
69822;SDS011;57119;52.516;13.508;2023-04-25T11:20:32;7.77;;;2.00;;
69822;SDS011;57119;52.516;13.508;2023-04-25T11:22:58;10.20;;;2.00;;
69822;SDS011;57119;52.516;13.508;2023-04-25T11:25:26;8.90;;;2.05;;
69822;SDS011;57119;52.516;13.508;2023-04-25T11:27:52;9.60;;;2.13;;
69822;SDS011;57119;52.516;13.508;2023-04-25T11:30:22;8.80;;;2.28;;
69822;SDS011;57119;52.516;13.508;2023-04-25T11:32:49;7.55;;;1.98;;
69822;SDS011;57119;52.516;13.508;2023-04-25T11:35:15;9.30;;;2.33;;
69822;SDS011;57119;52.516;13.508;2023-04-25T11:37:44;9.63;;;2.20;;
69822;SDS011;57119;52.516;13.508;2023-04-25T11:40:10;11.65;;;2.10;;
69822;SDS011;57119;52.516;13.508;2023-04-25T11:42:36;13.77;;;2.30;;
69822;SDS011;57119;52.516;13.508;2023-04-25T11:45:03;13.30;;;2.03;;
69822;SDS011;57119;52.516;13.508;2023-04-25T11:47:30;10.13;;;2.53;;
69822;SDS011;57119;52.516;13.508;2023-04-25T11:49:57;9.07;;;1.90;;
69822;SDS011;57119;52.516;13.508;2023-04-25T11:52:39;11.68;;;2.17;;
69822;SDS011;57119;52.516;13.508;2023-04-25T11:55:15;8.73;;;1.73;;
69822;SDS011;57119;52.516;13.508;2023-04-25T11:57:42;9.30;;;2.00;;
69822;SDS011;57119;52.516;13.508;2023-04-25T12:02:40;9.40;;;1.80;;
69822;SDS011;57119;52.516;13.508;2023-04-25T12:05:07;8.55;;;1.50;;
69822;SDS011;57119;52.516;13.508;2023-04-25T12:07:34;8.05;;;1.80;;
69822;SDS011;57119;52.516;13.508;2023-04-25T12:10:04;7.07;;;1.40;;
69822;SDS011;57119;52.516;13.508;2023-04-25T12:12:34;8.10;;;2.15;;
69822;SDS011;57119;52.516;13.508;2023-04-25T12:15:13;10.93;;;2.03;;
69822;SDS011;57119;52.516;13.508;2023-04-25T12:17:47;9.07;;;1.73;;
69822;SDS011;57119;52.516;13.508;2023-04-25T12:20:18;9.55;;;1.90;;
69822;SDS011;57119;52.516;13.508;2023-04-25T12:22:46;8.40;;;1.90;;
69822;SDS011;57119;52.516;13.508;2023-04-25T12:25:14;8.18;;;1.80;;
69822;SDS011;57119;52.516;13.508;2023-04-25T12:30:58;8.45;;;1.73;;
69822;SDS011;57119;52.516;13.508;2023-04-25T12:33:28;7.88;;;1.98;;
69822;SDS011;57119;52.516;13.508;2023-04-25T12:35:55;7.53;;;2.00;;
69822;SDS011;57119;52.516;13.508;2023-04-25T12:38:26;6.70;;;1.58;;
69822;SDS011;57119;52.516;13.508;2023-04-25T12:40:52;7.88;;;1.85;;
69822;SDS011;57119;52.516;13.508;2023-04-25T12:43:19;7.60;;;1.70;;
69822;SDS011;57119;52.516;13.508;2023-04-25T12:45:44;7.07;;;2.40;;
69822;SDS011;57119;52.516;13.508;2023-04-25T12:48:12;7.93;;;2.42;;
69822;SDS011;57119;52.516;13.508;2023-04-25T12:50:38;6.50;;;1.57;;
69822;SDS011;57119;52.516;13.508;2023-04-25T12:53:03;6.73;;;1.70;;
69822;SDS011;57119;52.516;13.508;2023-04-25T12:55:28;5.47;;;1.42;;
69822;SDS011;57119;52.516;13.508;2023-04-25T12:57:54;8.73;;;1.97;;
69822;SDS011;57119;52.516;13.508;2023-04-25T13:00:20;6.00;;;1.70;;
69822;SDS011;57119;52.516;13.508;2023-04-25T13:02:45;9.10;;;1.95;;
69822;SDS011;57119;52.516;13.508;2023-04-25T13:05:13;8.73;;;2.40;;
69822;SDS011;57119;52.516;13.508;2023-04-25T13:07:39;7.75;;;1.58;;
69822;SDS011;57119;52.516;13.508;2023-04-25T13:10:04;5.70;;;1.43;;
69822;SDS011;57119;52.516;13.508;2023-04-25T13:12:30;5.38;;;1.27;;
69822;SDS011;57119;52.516;13.508;2023-04-25T13:14:56;5.83;;;1.30;;
69822;SDS011;57119;52.516;13.508;2023-04-25T13:17:22;5.72;;;1.70;;
69822;SDS011;57119;52.516;13.508;2023-04-25T13:19:47;7.67;;;2.03;;
69822;SDS011;57119;52.516;13.508;2023-04-25T13:22:12;5.63;;;2.10;;
69822;SDS011;57119;52.516;13.508;2023-04-25T13:24:40;6.07;;;2.70;;
69822;SDS011;57119;52.516;13.508;2023-04-25T13:27:05;5.47;;;2.50;;
69822;SDS011;57119;52.516;13.508;2023-04-25T13:29:31;6.00;;;2.33;;
69822;SDS011;57119;52.516;13.508;2023-04-25T13:31:59;7.38;;;1.77;;
69822;SDS011;57119;52.516;13.508;2023-04-25T13:34:24;6.23;;;1.73;;
69822;SDS011;57119;52.516;13.508;2023-04-25T13:36:49;4.67;;;1.60;;
69822;SDS011;57119;52.516;13.508;2023-04-25T13:39:15;8.53;;;1.70;;
69822;SDS011;57119;52.516;13.508;2023-04-25T13:41:40;6.65;;;1.40;;
69822;SDS011;57119;52.516;13.508;2023-04-25T13:44:06;6.20;;;1.60;;
69822;SDS011;57119;52.516;13.508;2023-04-25T13:46:31;8.40;;;1.63;;
69822;SDS011;57119;52.516;13.508;2023-04-25T13:48:56;9.87;;;1.90;;
69822;SDS011;57119;52.516;13.508;2023-04-25T13:51:22;7.47;;;1.80;;
69822;SDS011;57119;52.516;13.508;2023-04-25T13:53:47;6.00;;;1.53;;
69822;SDS011;57119;52.516;13.508;2023-04-25T13:56:12;5.87;;;1.47;;
69822;SDS011;57119;52.516;13.508;2023-04-25T13:58:38;5.53;;;1.77;;
69822;SDS011;57119;52.516;13.508;2023-04-25T14:01:04;6.35;;;1.88;;
69822;SDS011;57119;52.516;13.508;2023-04-25T14:03:30;9.50;;;1.90;;
69822;SDS011;57119;52.516;13.508;2023-04-25T14:05:55;6.13;;;2.20;;
69822;SDS011;57119;52.516;13.508;2023-04-25T14:08:21;8.57;;;2.20;;
69822;SDS011;57119;52.516;13.508;2023-04-25T14:10:46;4.90;;;1.47;;
69822;SDS011;57119;52.516;13.508;2023-04-25T14:13:11;8.77;;;1.87;;
69822;SDS011;57119;52.516;13.508;2023-04-25T14:15:37;6.65;;;1.50;;
69822;SDS011;57119;52.516;13.508;2023-04-25T14:18:02;7.63;;;1.63;;
69822;SDS011;57119;52.516;13.508;2023-04-25T14:20:28;5.43;;;1.60;;
69822;SDS011;57119;52.516;13.508;2023-04-25T14:22:54;8.30;;;1.80;;
69822;SDS011;57119;52.516;13.508;2023-04-25T14:25:21;5.88;;;1.75;;
69822;SDS011;57119;52.516;13.508;2023-04-25T14:27:47;8.32;;;2.42;;
69822;SDS011;57119;52.516;13.508;2023-04-25T14:30:15;8.02;;;1.85;;
69822;SDS011;57119;52.516;13.508;2023-04-25T14:32:41;8.80;;;1.80;;
69822;SDS011;57119;52.516;13.508;2023-04-25T14:35:06;8.50;;;2.10;;